Time;durP1;ratioP1;P1;durP2;ratioP2;P2;SDS_P1;SDS_P2;PMS_P1;PMS_P2;Temp;Humidity;BMP_temperature;BMP_pressure;BME280_temperature;BME280_humidity;BME280_pressure;Samples;Min_cycle;Max_cycle;Signal;HPM_P1;HPM_P2
2022/04/03 00:00:06;;;;;;;;;;;;;;;0.99;48.93;100047.19;5032154;28;20029;-77
2022/04/03 00:02:32;;;;;;;6.38;4.15;;;;;;;0.97;49.42;100050.41;5031785;28;20003;-76
2022/04/03 00:04:57;;;;;;;8.35;4.05;;;;;;;0.96;49.08;100045.22;5033371;28;20025;-76
2022/04/03 00:07:26;;;;;;;10.40;3.63;;;;;;;1.04;49.35;100046.69;5032999;28;20021;-77
2022/04/03 00:09:52;;;;;;;10.95;4.30;;;;;;;1.07;48.70;100046.66;5033754;28;20060;-75
2022/04/03 00:12:18;;;;;;;13.75;3.80;;;;;;;1.13;49.24;100044.19;5034254;28;20048;-77
2022/04/03 00:14:44;;;;;;;9.80;4.25;;;;;;;1.08;48.78;100041.84;5016497;28;20029;-77
2022/04/03 00:17:10;;;;;;;11.75;4.43;;;;;;;1.02;48.72;100047.13;5032621;28;20030;-76
2022/04/03 00:19:35;;;;;;;10.10;4.35;;;;;;;1.11;48.92;100030.56;5032564;28;20032;-76
2022/04/03 00:22:01;;;;;;;7.85;4.15;;;;;;;1.10;48.81;100045.00;5032630;28;20029;-77
2022/04/03 00:24:29;;;;;;;8.57;3.83;;;;;;;1.08;48.99;100033.44;5032748;28;20045;-76
2022/04/03 00:26:55;;;;;;;8.90;4.50;;;;;;;1.04;49.44;100044.69;5034060;28;20108;-77
2022/04/03 00:29:23;;;;;;;9.93;4.50;;;;;;;0.93;48.97;100024.44;5032725;28;20505;-76
2022/04/03 00:31:49;;;;;;;12.85;4.45;;;;;;;1.00;49.21;100040.34;5032793;28;20049;-75
2022/04/03 00:34:15;;;;;;;7.10;3.65;;;;;;;1.00;49.63;100043.94;5032520;28;20083;-76
2022/04/03 00:36:42;;;;;;;10.23;4.20;;;;;;;1.03;49.40;100045.91;5034059;28;20022;-76
2022/04/03 00:39:08;;;;;;;6.68;4.32;;;;;;;0.99;49.61;100044.38;5033790;28;20060;-77
2022/04/03 00:41:34;;;;;;;12.02;4.03;;;;;;;0.94;49.63;100056.06;5033667;28;20041;-77
2022/04/03 00:44:00;;;;;;;7.55;3.70;;;;;;;0.88;50.10;100047.31;5032352;28;20501;-75
2022/04/03 00:46:27;;;;;;;8.98;3.42;;;;;;;0.97;49.68;100047.59;5032097;28;20069;-76
2022/04/03 00:48:53;;;;;;;8.18;3.05;;;;;;;1.01;49.97;100053.16;5015846;28;20044;-74
2022/04/03 00:51:18;;;;;;;10.05;3.63;;;;;;;0.90;49.81;100041.28;5032312;28;20034;-76
2022/04/03 00:53:45;;;;;;;6.40;3.83;;;;;;;0.92;49.77;100050.06;5032420;28;20063;-76
2022/04/03 00:56:12;;;;;;;6.65;3.55;;;;;;;0.97;50.08;100047.59;5035090;28;20028;-76
2022/04/03 00:58:38;;;;;;;7.60;3.80;;;;;;;0.97;50.38;100053.19;5036377;28;20061;-77
2022/04/03 01:01:04;;;;;;;4.72;3.03;;;;;;;0.97;50.45;100056.00;5036263;28;20382;-77
2022/04/03 01:03:31;;;;;;;9.18;4.05;;;;;;;0.89;50.80;100064.94;5036218;28;20116;-75
2022/04/03 01:05:57;;;;;;;7.82;3.15;;;;;;;0.83;50.60;100057.00;5036391;28;20286;-76
2022/04/03 01:08:24;;;;;;;7.28;3.78;;;;;;;0.85;50.25;100065.75;5037790;28;20056;-75
2022/04/03 01:10:50;;;;;;;7.60;3.92;;;;;;;0.79;50.79;100059.00;5040295;28;20026;-77
2022/04/03 01:13:16;;;;;;;6.47;2.83;;;;;;;0.84;50.33;100057.75;5004462;28;20029;-75
2022/04/03 01:15:49;;;;;;;5.68;3.22;;;;;;;0.81;50.71;100061.41;5022283;28;20029;-77
2022/04/03 01:18:15;;;;;;;8.00;3.67;;;;;;;0.74;51.07;100062.28;5038771;28;20033;-75
2022/04/03 01:20:41;;;;;;;6.05;2.70;;;;;;;0.75;50.89;100071.47;5036819;28;20427;-76
2022/04/03 01:23:06;;;;;;;7.68;3.13;;;;;;;0.78;50.92;100063.06;5036639;28;20033;-76
2022/04/03 01:25:33;;;;;;;5.30;3.30;;;;;;;0.80;50.74;100065.41;5036574;28;20171;-75
2022/04/03 01:28:00;;;;;;;13.07;3.67;;;;;;;0.75;50.70;100063.88;5036036;28;20472;-77
2022/04/03 01:30:26;;;;;;;8.35;3.75;;;;;;;0.80;50.71;100068.22;5036889;28;20085;-76
2022/04/03 01:32:51;;;;;;;6.38;3.15;;;;;;;0.71;51.79;100065.94;5019137;28;20033;-76
2022/04/03 01:35:18;;;;;;;8.70;3.25;;;;;;;0.60;51.41;100064.44;5035703;28;20033;-76
2022/04/03 01:37:43;;;;;;;6.90;3.22;;;;;;;0.71;51.15;100074.34;5037068;28;20017;-76
2022/04/03 01:40:11;;;;;;;10.13;3.88;;;;;;;0.75;51.60;100075.09;5035692;28;20107;-76
2022/04/03 01:42:51;;;;;;;10.63;3.40;;;;;;;0.71;51.58;100079.94;5018996;28;20053;-76
2022/04/03 01:45:20;;;;;;;6.20;3.10;;;;;;;0.74;51.70;100072.72;5035410;28;20029;-77
2022/04/03 01:47:47;;;;;;;9.18;3.53;;;;;;;0.82;51.06;100072.22;5036959;28;20485;-76
2022/04/03 01:50:13;;;;;;;10.15;3.13;;;;;;;0.64;51.66;100062.44;5018710;28;20470;-76
2022/04/03 01:52:40;;;;;;;8.88;2.92;;;;;;;0.68;51.96;100082.78;5036451;28;20382;-76
2022/04/03 01:55:08;;;;;;;9.90;3.47;;;;;;;0.65;52.31;100080.81;5036478;28;20029;-76
2022/04/03 01:57:34;;;;;;;7.72;3.20;;;;;;;0.66;51.75;100076.78;5037009;28;20040;-76
2022/04/03 02:00:05;;;;;;;8.63;3.47;;;;;;;0.67;51.80;100079.19;5035416;28;20034;-76
2022/04/03 02:02:32;;;;;;;;;;;;;;;0.66;52.09;100080.41;5035893;28;20151;-76
2022/04/03 02:04:58;;;;;;;8.02;3.70;;;;;;;0.68;51.81;100085.59;5036500;28;19909;-77
2022/04/03 02:07:24;;;;;;;7.10;3.83;;;;;;;0.58;51.75;100090.09;5034091;28;20386;-76
2022/04/03 02:09:50;;;;;;;9.80;3.65;;;;;;;0.51;52.27;100092.97;5018345;28;20053;-76
2022/04/03 02:12:16;;;;;;;6.97;3.83;;;;;;;0.42;52.09;100084.25;5036268;28;20027;-76
2022/04/03 02:14:41;;;;;;;8.38;4.47;;;;;;;0.44;51.96;100082.63;5034753;28;20025;-76
2022/04/03 02:17:07;;;;;;;7.68;3.92;;;;;;;0.40;52.38;100092.28;5018398;28;20426;-76
2022/04/03 02:19:32;;;;;;;6.32;3.63;;;;;;;0.41;52.18;100093.88;5036390;28;20045;-75
2022/04/03 02:21:59;;;;;;;8.70;3.63;;;;;;;0.35;52.71;100093.53;5018327;28;20482;-76
2022/04/03 02:24:26;;;;;;;10.20;4.20;;;;;;;0.35;52.38;100095.53;5035776;28;20057;-76
2022/04/03 02:26:53;;;;;;;7.53;3.92;;;;;;;0.29;52.65;100088.81;5034732;28;20021;-75
2022/04/03 02:29:20;;;;;;;7.47;3.53;;;;;;;0.31;52.62;100097.56;5036107;28;20026;-75
2022/04/03 02:31:48;;;;;;;8.60;3.70;;;;;;;0.23;52.55;100093.25;5034797;28;20037;-75
2022/04/03 02:34:13;;;;;;;6.93;3.38;;;;;;;0.30;52.40;100087.56;5035980;28;20105;-75
2022/04/03 02:36:40;;;;;;;7.35;3.60;;;;;;;0.29;52.08;100089.59;5035620;28;20056;-76
2022/04/03 02:39:06;;;;;;;8.75;3.78;;;;;;;0.34;52.06;100103.16;5035836;28;20091;-76
2022/04/03 02:41:33;;;;;;;6.05;3.05;;;;;;;0.40;52.29;100098.66;5018055;28;20086;-76
2022/04/03 02:43:58;;;;;;;8.93;3.95;;;;;;;0.31;52.19;100089.16;5035896;28;20036;-77
2022/04/03 02:46:25;;;;;;;10.80;4.28;;;;;;;0.27;52.88;100086.41;5017838;28;20025;-76
2022/04/03 02:48:51;;;;;;;8.38;3.78;;;;;;;0.26;52.79;100096.00;5034222;28;20021;-76
2022/04/03 02:51:17;;;;;;;9.02;3.92;;;;;;;0.20;52.72;100094.88;5034561;28;20032;-77
2022/04/03 02:53:43;;;;;;;5.85;2.97;;;;;;;0.27;52.55;100108.00;5017386;28;20168;-76
2022/04/03 02:56:09;;;;;;;10.35;4.60;;;;;;;0.13;53.00;100106.13;5035229;28;20453;-76
2022/04/03 02:58:35;;;;;;;6.50;3.67;;;;;;;0.25;52.73;100110.41;5034196;28;20145;-76
2022/04/03 03:01:01;;;;;;;7.05;3.63;;;;;;;0.20;52.73;100116.50;5035555;28;20060;-76
2022/04/03 03:03:27;;;;;;;8.43;4.25;;;;;;;0.19;53.00;100123.28;5034107;28;20379;-76
2022/04/03 03:05:54;;;;;;;9.95;3.67;;;;;;;0.18;53.08;100125.28;5033882;28;20026;-75
2022/04/03 03:08:21;;;;;;;12.98;4.30;;;;;;;0.14;53.01;100120.94;5034891;28;20068;-76
2022/04/03 03:10:48;;;;;;;9.02;3.75;;;;;;;0.24;52.83;100126.44;5033696;28;20029;-75
2022/04/03 03:13:13;;;;;;;6.82;3.42;;;;;;;0.22;53.09;100128.06;5017338;28;20132;-76
2022/04/03 03:15:40;;;;;;;9.70;4.60;;;;;;;0.20;53.23;100122.84;5035840;28;20039;-76
2022/04/03 03:18:05;;;;;;;8.77;3.63;;;;;;;0.25;52.83;100133.63;5034344;28;20442;-76
2022/04/03 03:20:32;;;;;;;8.70;3.83;;;;;;;0.33;52.95;100131.56;5040746;28;20124;-77
2022/04/03 03:22:57;;;;;;;7.07;3.88;;;;;;;0.23;53.36;100129.66;5040691;28;20045;-77
2022/04/03 03:25:24;;;;;;;7.60;3.92;;;;;;;0.15;53.75;100126.09;5038821;28;20029;-76
2022/04/03 03:27:50;;;;;;;6.80;3.85;;;;;;;0.21;53.95;100135.66;5022152;28;20025;-76
2022/04/03 03:30:30;;;;;;;5.90;3.35;;;;;;;0.10;54.63;100126.53;5040401;28;20079;-75
2022/04/03 03:32:55;;;;;;;9.20;3.55;;;;;;;0.14;54.49;100121.75;5037631;28;20084;-77
2022/04/03 03:35:22;;;;;;;8.95;4.40;;;;;;;0.15;54.96;100137.31;5035465;28;20453;-75
2022/04/03 03:37:48;;;;;;;6.90;3.45;;;;;;;0.11;54.96;100138.53;5033454;28;20055;-78
2022/04/03 03:40:14;;;;;;;9.05;4.78;;;;;;;-0.14;55.16;100108.75;5034739;28;20025;-75
2022/04/03 03:42:42;;;;;;;7.88;3.33;;;;;;;0.09;55.95;100136.19;5035296;28;20517;-76
2022/04/03 03:45:10;;;;;;;6.68;4.47;;;;;;;-0.07;56.44;100142.28;5033982;28;20075;-76
2022/04/03 03:47:37;;;;;;;6.95;4.57;;;;;;;-0.15;56.85;100135.13;5034348;28;20029;-77
2022/04/03 03:50:04;;;;;;;7.85;3.53;;;;;;;-0.15;57.02;100149.13;5033791;28;20045;-76
2022/04/03 03:52:30;;;;;;;11.40;3.42;;;;;;;-0.09;57.36;100157.88;5016195;28;20099;-77
2022/04/03 03:54:58;;;;;;;8.00;4.15;;;;;;;-0.17;57.70;100154.34;5034463;28;20455;-77
2022/04/03 03:57:24;;;;;;;8.20;3.60;;;;;;;-0.24;57.52;100148.78;5016643;28;20061;-76
2022/04/03 03:59:51;;;;;;;8.20;4.32;;;;;;;-0.26;57.74;100158.81;5016505;28;20029;-75
2022/04/03 04:02:18;;;;;;;8.00;3.92;;;;;;;-0.27;57.88;100162.81;5016788;28;20030;-76
2022/04/03 04:04:44;;;;;;;9.80;4.00;;;;;;;-0.35;57.89;100173.25;5016511;28;20034;-75
2022/04/03 04:07:10;;;;;;;7.28;3.50;;;;;;;-0.34;58.34;100162.84;5032903;28;20044;-75
2022/04/03 04:09:36;;;;;;;6.38;3.70;;;;;;;-0.27;58.76;100168.41;5034180;28;20053;-76
2022/04/03 04:12:03;;;;;;;10.68;3.55;;;;;;;-0.28;58.43;100172.41;5017042;28;20029;-76
2022/04/03 04:14:30;;;;;;;7.22;3.47;;;;;;;-0.35;58.79;100176.06;5033877;28;20431;-76
2022/04/03 04:16:55;;;;;;;6.57;4.15;;;;;;;-0.42;58.88;100173.28;5018212;28;20025;-76
2022/04/03 04:19:20;;;;;;;6.82;3.45;;;;;;;-0.36;59.09;100191.25;5036010;28;20031;-77
2022/04/03 04:21:47;;;;;;;10.23;3.30;;;;;;;-0.34;58.85;100193.63;5033662;28;20105;-77
2022/04/03 04:24:15;;;;;;;8.35;3.67;;;;;;;-0.30;59.14;100197.22;5033423;28;20038;-78
2022/04/03 04:26:41;;;;;;;7.18;3.88;;;;;;;-0.34;59.31;100188.81;5035269;28;20099;-76
2022/04/03 04:29:07;;;;;;;8.00;3.60;;;;;;;-0.27;58.92;100196.38;5034430;28;20032;-76
2022/04/03 04:31:34;;;;;;;10.35;3.83;;;;;;;-0.25;59.82;100202.38;5033307;28;20030;-76
2022/04/03 04:34:03;;;;;;;5.90;3.42;;;;;;;-0.25;59.24;100200.38;5034315;28;20026;-76
2022/04/03 04:36:29;;;;;;;6.07;3.08;;;;;;;-0.15;59.46;100207.13;5033154;28;20028;-76
2022/04/03 04:38:56;;;;;;;7.60;3.42;;;;;;;-0.12;59.73;100204.28;5032740;28;20025;-77
2022/04/03 04:41:23;;;;;;;8.63;3.13;;;;;;;-0.11;59.87;100219.09;5032612;28;20029;-76
2022/04/03 04:43:49;;;;;;;8.05;2.90;;;;;;;0.03;60.04;100205.00;5016366;28;20036;-76
2022/04/03 04:46:14;;;;;;;7.75;3.58;;;;;;;0.00;59.68;100212.19;5032611;28;20029;-75
2022/04/03 04:48:40;;;;;;;5.70;3.25;;;;;;;0.15;59.47;100218.50;5017929;28;20029;-76
2022/04/03 04:51:09;;;;;;;5.65;3.35;;;;;;;0.19;59.57;100218.50;5041576;28;20060;-76
2022/04/03 04:53:35;;;;;;;4.78;3.22;;;;;;;0.29;59.54;100226.03;5041010;28;20060;-77
2022/04/03 04:56:02;;;;;;;8.50;3.85;;;;;;;0.39;59.12;100219.56;5034886;28;20049;-76
2022/04/03 04:58:28;;;;;;;7.47;3.65;;;;;;;0.52;59.27;100225.44;4999685;28;20029;-76
2022/04/03 05:00:53;;;;;;;6.07;3.60;;;;;;;0.51;59.05;100221.84;5016068;28;20037;-76
2022/04/03 05:03:19;;;;;;;5.18;3.47;;;;;;;0.58;59.37;100233.00;5033630;28;20036;-76
2022/04/03 05:05:46;;;;;;;7.18;2.95;;;;;;;0.71;59.04;100233.28;4999760;28;20120;-76
2022/04/03 05:08:13;;;;;;;6.22;3.47;;;;;;;0.79;58.98;100232.03;5015335;28;20052;-77
2022/04/03 05:10:38;;;;;;;8.05;3.80;;;;;;;0.80;58.56;100233.59;5033586;28;20042;-75
2022/04/03 05:13:09;;;;;;;10.25;3.30;;;;;;;0.88;58.15;100237.94;5033512;28;20033;-77
2022/04/03 05:15:36;;;;;;;4.00;3.00;;;;;;;0.85;58.18;100245.16;5032841;28;20060;-77
2022/04/03 05:18:02;;;;;;;6.95;3.90;;;;;;;0.85;58.70;100242.34;4999117;28;20033;-75
2022/04/03 05:20:29;;;;;;;6.78;3.90;;;;;;;0.95;58.28;100242.66;5032448;28;20116;-76
2022/04/03 05:22:55;;;;;;;5.03;3.13;;;;;;;0.93;58.10;100245.09;5031795;28;20029;-76
2022/04/03 05:25:21;;;;;;;7.88;3.50;;;;;;;0.97;58.71;100243.06;4999321;28;20033;-76
2022/04/03 05:27:47;;;;;;;11.00;3.83;;;;;;;0.89;58.19;100219.88;5033241;28;20036;-75
2022/04/03 05:30:15;;;;;;;5.18;3.30;;;;;;;1.14;57.96;100248.47;5031847;28;20026;-76
2022/04/03 05:32:41;;;;;;;6.95;3.70;;;;;;;1.24;57.88;100261.59;5032274;28;20021;-76
2022/04/03 05:35:13;;;;;;;5.35;3.20;;;;;;;1.20;57.66;100251.63;5015597;28;20115;-76
2022/04/03 05:37:39;;;;;;;7.22;3.60;;;;;;;1.37;57.65;100261.06;5033892;28;20036;-76
2022/04/03 05:40:07;;;;;;;8.98;3.63;;;;;;;1.40;56.95;100251.81;5033366;28;20033;-76
2022/04/03 05:42:35;;;;;;;5.30;3.22;;;;;;;1.35;56.95;100258.69;5033529;28;20037;-76
2022/04/03 05:45:01;;;;;;;6.13;3.78;;;;;;;1.39;57.07;100261.44;5035770;28;20164;-77
2022/04/03 05:47:28;;;;;;;5.65;3.47;;;;;;;1.52;57.16;100265.31;5035563;28;20032;-76
2022/04/03 05:50:08;;;;;;;4.85;3.45;;;;;;;1.60;56.24;100275.22;5018891;28;20080;-76
2022/04/03 05:52:42;;;;;;;7.03;3.30;;;;;;;1.69;56.81;100276.31;5025422;28;20057;-76
2022/04/03 05:55:21;;;;;;;6.95;3.15;;;;;;;1.83;56.58;100269.72;4998673;28;20095;-76
2022/04/03 05:57:49;;;;;;;7.50;3.35;;;;;;;2.06;55.56;100283.88;4998980;28;20080;-75
2022/04/03 06:00:17;;;;;;;6.15;3.70;;;;;;;2.20;55.39;100277.25;5016732;28;20030;-76
2022/04/03 06:02:54;;;;;;;7.93;3.65;;;;;;;2.34;54.46;100288.28;5031844;28;20474;-75
2022/04/03 06:05:25;;;;;;;8.90;3.50;;;;;;;2.37;54.30;100284.63;5015949;28;20123;-77
2022/04/03 06:07:59;;;;;;;7.78;3.50;;;;;;;2.39;54.11;100285.00;4998945;28;20077;-75
2022/04/03 06:10:26;;;;;;;5.80;3.30;;;;;;;2.46;54.51;100282.09;5016390;28;20073;-75
2022/04/03 06:13:00;;;;;;;8.07;3.80;;;;;;;2.71;54.30;100295.78;4998960;28;20044;-76
2022/04/03 06:15:33;;;;;;;7.43;3.35;;;;;;;2.93;53.79;100299.81;4998963;28;20493;-75
2022/04/03 06:17:59;;;;;;;5.28;3.70;;;;;;;3.09;53.41;100289.91;4999360;28;20053;-75
2022/04/03 06:20:26;;;;;;;6.28;4.00;;;;;;;3.18;52.63;100292.97;4998796;28;20077;-75
2022/04/03 06:22:53;;;;;;;7.50;3.60;;;;;;;3.20;51.75;100296.16;5015053;28;20578;-74
2022/04/03 06:25:20;;;;;;;5.15;3.33;;;;;;;3.04;52.36;100305.28;5015100;28;20466;-75
2022/04/03 06:27:47;;;;;;;5.68;3.30;;;;;;;2.92;52.64;100301.03;5014899;28;20041;-74
2022/04/03 06:30:13;;;;;;;5.25;3.65;;;;;;;2.94;53.23;100312.66;5032845;28;20033;-74
2022/04/03 06:32:39;;;;;;;5.40;3.50;;;;;;;3.06;52.35;100299.22;5033083;28;20486;-74
2022/04/03 06:35:06;;;;;;;5.03;3.08;;;;;;;3.10;52.13;100302.78;5029478;28;20033;-75
2022/04/03 06:37:32;;;;;;;5.63;3.75;;;;;;;3.20;51.80;100313.84;5014272;28;20474;-74
2022/04/03 06:40:04;;;;;;;8.15;3.65;;;;;;;3.18;51.86;100312.66;5021938;28;20474;-74
2022/04/03 06:42:31;;;;;;;7.85;3.90;;;;;;;3.22;52.36;100321.84;5018000;28;20108;-74
2022/04/03 06:45:00;;;;;;;6.88;3.22;;;;;;;3.42;51.41;100322.69;5016881;28;20113;-75
2022/04/03 06:47:27;;;;;;;5.22;3.25;;;;;;;3.63;51.07;100327.94;5017090;28;20050;-74
2022/04/03 06:49:53;;;;;;;6.88;3.53;;;;;;;3.69;50.93;100323.41;5032587;28;20041;-74
2022/04/03 06:52:21;;;;;;;4.55;3.33;;;;;;;3.77;50.39;100324.84;5016795;28;20037;-74
2022/04/03 06:54:47;;;;;;;7.50;3.78;;;;;;;3.90;50.03;100331.41;5032036;28;20030;-75
2022/04/03 06:57:15;;;;;;;7.13;4.00;;;;;;;4.12;49.37;100326.13;5018544;28;20029;-77
2022/04/03 06:59:42;;;;;;;5.35;3.13;;;;;;;4.81;49.73;100327.00;5035826;28;20041;-75
2022/04/03 07:02:09;;;;;;;7.57;3.80;;;;;;;6.44;46.07;100320.59;5036109;28;20029;-76
2022/04/03 07:04:37;;;;;;;4.82;3.35;;;;;;;7.90;43.26;100315.72;5017968;28;20038;-75
2022/04/03 07:07:04;;;;;;;6.68;2.95;;;;;;;8.61;41.63;100320.31;5035355;28;20466;-76
2022/04/03 07:09:30;;;;;;;6.63;3.72;;;;;;;9.92;39.87;100308.31;5017901;28;20057;-77
2022/04/03 07:11:55;;;;;;;7.13;3.25;;;;;;;12.55;36.45;100300.41;5034679;28;20084;-79
2022/04/03 07:14:22;;;;;;;6.65;3.90;;;;;;;15.18;31.45;100287.22;5018543;28;20053;-80
2022/04/03 07:16:47;;;;;;;3.63;2.75;;;;;;;17.27;26.86;100296.94;5022889;28;20087;-80
2022/04/03 07:19:13;;;;;;;6.05;3.40;;;;;;;18.81;25.43;100289.44;5031713;28;20029;-80
2022/04/03 07:21:38;;;;;;;5.55;3.13;;;;;;;20.01;23.51;100287.13;5034976;28;20031;-78
2022/04/03 07:24:05;;;;;;;6.07;3.80;;;;;;;20.91;22.31;100294.00;5035673;28;20108;-78
2022/04/03 07:26:31;;;;;;;5.78;3.10;;;;;;;21.90;21.25;100295.59;5034981;28;20135;-79
2022/04/03 07:28:57;;;;;;;6.82;3.65;;;;;;;22.81;20.06;100299.66;5039244;28;20033;-81
2022/04/03 07:31:22;;;;;;;5.30;3.20;;;;;;;23.42;19.47;100294.41;5037044;28;20025;-77
2022/04/03 07:33:50;;;;;;;5.43;3.28;;;;;;;24.15;17.74;100298.94;5023011;28;20445;-78
2022/04/03 07:36:16;;;;;;;4.05;2.95;;;;;;;24.35;17.04;100292.28;5047773;28;20022;-80
2022/04/03 07:38:42;;;;;;;3.78;2.85;;;;;;;23.61;16.85;100309.50;5047681;28;20032;-76
2022/04/03 07:41:09;;;;;;;6.72;2.97;;;;;;;21.74;17.62;100311.22;5044523;28;20049;-75
2022/04/03 07:43:35;;;;;;;5.55;2.88;;;;;;;19.41;19.21;100331.41;5023540;28;20033;-77
2022/04/03 07:46:03;;;;;;;8.40;2.63;;;;;;;17.24;21.35;100331.75;5023982;28;20030;-78
2022/04/03 07:48:28;;;;;;;4.18;2.85;;;;;;;15.71;22.83;100341.84;4998815;28;20026;-81
2022/04/03 07:50:54;;;;;;;3.90;2.53;;;;;;;15.06;23.13;100338.78;5023389;28;20033;-79
2022/04/03 07:53:21;;;;;;;4.82;2.47;;;;;;;14.54;23.93;100346.66;5032534;28;20064;-81
2022/04/03 07:55:46;;;;;;;2.95;2.15;;;;;;;14.37;24.26;100311.28;5035424;28;20026;-78
2022/04/03 07:58:13;;;;;;;2.60;2.03;;;;;;;15.55;22.06;100334.72;5042066;28;20097;-77
2022/04/03 08:00:39;;;;;;;2.88;1.80;;;;;;;14.44;23.24;100344.47;5040968;28;20095;-81
2022/04/03 08:03:05;;;;;;;3.80;2.65;;;;;;;13.14;24.67;100323.22;5035378;28;20025;-87
2022/04/03 08:05:31;;;;;;;10.98;2.40;;;;;;;12.25;26.00;100357.97;5033864;28;20087;-84
2022/04/03 08:07:56;;;;;;;2.75;2.35;;;;;;;11.00;26.74;100362.72;5026089;28;20034;-86
2022/04/03 08:10:22;;;;;;;4.63;2.83;;;;;;;9.97;28.05;100378.81;5016571;28;20514;-83
2022/04/03 08:12:51;;;;;;;7.00;3.30;;;;;;;9.13;30.33;100371.84;5029766;28;20410;-80
2022/04/03 08:15:19;;;;;;;6.65;3.15;;;;;;;8.53;31.16;100378.63;5026356;28;20033;-81
2022/04/03 08:17:44;;;;;;;6.95;4.07;;;;;;;8.11;32.34;100372.47;5026515;28;20105;-81
2022/04/03 08:20:16;;;;;;;7.70;3.75;;;;;;;7.81;33.10;100375.97;4997692;28;20104;-83
2022/04/03 08:22:43;;;;;;;;;;;;;;;7.63;34.11;100390.78;5015451;28;20475;-83
2022/04/03 08:25:09;;;;;;;6.05;3.83;;;;;;;7.34;34.65;100390.94;5046219;28;20012;-82
2022/04/03 08:27:48;;;;;;;6.90;3.63;;;;;;;7.41;35.47;100395.56;5012132;28;20501;-79
2022/04/03 08:30:18;;;;;;;5.85;3.75;;;;;;;7.61;35.07;100393.25;5023834;28;20022;-80
2022/04/03 08:32:52;;;;;;;5.45;2.72;;;;;;;10.38;29.80;100383.13;5050299;28;20067;-78
2022/04/03 08:35:20;;;;;;;3.88;2.00;;;;;;;10.65;28.30;100360.31;5027449;28;20021;-81
2022/04/03 08:37:47;;;;;;;3.70;2.10;;;;;;;12.40;25.85;100373.88;5031989;28;20143;-75
2022/04/03 08:40:14;;;;;;;4.53;2.20;;;;;;;14.82;22.61;100363.34;5032464;28;20486;-79
2022/04/03 08:42:39;;;;;;;3.97;1.92;;;;;;;16.37;20.51;100352.84;5015990;28;20072;-77
2022/04/03 08:45:11;;;;;;;3.67;1.70;;;;;;;16.57;20.49;100354.72;5030517;28;20053;-76
2022/04/03 08:47:45;;;;;;;2.70;2.08;;;;;;;15.59;20.27;100351.69;5012508;28;20026;-77
2022/04/03 08:50:12;;;;;;;2.65;2.40;;;;;;;14.11;21.87;100359.19;4996293;28;20032;-79
2022/04/03 08:52:48;;;;;;;5.53;2.45;;;;;;;12.50;23.70;100375.38;5027232;28;20037;-78
2022/04/03 08:55:14;;;;;;;5.93;2.58;;;;;;;11.07;25.18;100380.25;5014281;28;20427;-78
2022/04/03 08:57:40;;;;;;;4.47;1.75;;;;;;;9.95;25.26;100385.00;5012511;28;20022;-78
2022/04/03 09:00:08;;;;;;;7.28;2.33;;;;;;;9.07;26.93;100389.50;4996418;28;20097;-79
2022/04/03 09:02:34;;;;;;;7.57;2.42;;;;;;;8.36;27.81;100408.47;5034705;28;20117;-78
2022/04/03 09:04:59;;;;;;;2.10;1.65;;;;;;;7.77;29.17;100400.81;5025633;28;20116;-77
2022/04/03 09:07:26;;;;;;;2.10;1.90;;;;;;;7.61;29.15;100401.75;5026817;28;20068;-78
2022/04/03 09:10:16;;;;;;;3.08;1.63;;;;;;;7.50;29.39;100400.56;5010548;28;20079;-78
2022/04/03 09:13:02;;;;;;;7.13;1.90;;;;;;;7.57;28.81;100392.59;5030628;28;20444;-77
2022/04/03 09:15:30;;;;;;;4.53;1.70;;;;;;;7.60;29.45;100408.66;5006401;28;20037;-77
2022/04/03 09:17:58;;;;;;;2.72;2.35;;;;;;;7.85;29.04;100402.16;5034209;28;20026;-78
2022/04/03 09:20:27;;;;;;;3.22;1.70;;;;;;;8.95;28.83;100403.78;5019481;28;20056;-77
2022/04/03 09:22:54;;;;;;;5.28;2.38;;;;;;;9.95;26.10;100402.06;5037409;28;20458;-77
2022/04/03 09:25:31;;;;;;;4.70;2.10;;;;;;;10.20;26.31;100406.69;5019930;28;20116;-77
2022/04/03 09:28:17;;;;;;;3.38;2.00;;;;;;;10.28;25.95;100407.16;5020411;28;20038;-77
2022/04/03 09:31:04;;;;;;;4.22;2.03;;;;;;;10.30;25.49;100402.59;5033515;28;20036;-78
2022/04/03 09:33:30;;;;;;;3.65;2.55;;;;;;;9.93;27.13;100400.94;5036278;28;20477;-77
2022/04/03 09:36:01;;;;;;;4.78;2.25;;;;;;;9.75;27.00;100409.47;5027272;28;20490;-77
2022/04/03 09:38:27;;;;;;;;;;;;;;;9.36;28.69;100413.94;5029889;28;20466;-77
2022/04/03 09:40:54;;;;;;;2.78;2.10;;;;;;;9.03;27.92;100414.41;5026211;28;19924;-77
2022/04/03 09:43:34;;;;;;;4.13;2.85;;;;;;;8.97;28.28;100406.97;5033659;28;20045;-79
2022/04/03 09:46:10;;;;;;;5.13;3.15;;;;;;;9.03;28.66;100402.25;5036285;28;20032;-77
2022/04/03 09:48:46;;;;;;;4.10;2.53;;;;;;;9.28;29.37;100402.03;5032664;28;20036;-78
2022/04/03 09:51:14;;;;;;;4.97;2.55;;;;;;;9.88;29.19;100396.66;5035879;28;20092;-78
2022/04/03 09:53:53;;;;;;;2.97;1.70;;;;;;;10.48;25.83;100392.44;5019448;28;20026;-78
2022/04/03 09:56:27;;;;;;;5.55;1.92;;;;;;;10.48;25.56;100389.59;5035902;28;20029;-78
2022/04/03 09:58:54;;;;;;;3.15;1.65;;;;;;;10.09;26.84;100394.16;5037164;28;20029;-78
2022/04/03 10:01:33;;;;;;;4.43;2.22;;;;;;;10.33;27.38;100397.97;5051091;28;20034;-77
2022/04/03 10:04:00;;;;;;;2.30;1.73;;;;;;;10.90;25.17;100389.66;5035235;28;20115;-77
2022/04/03 10:06:26;;;;;;;3.55;1.98;;;;;;;11.27;24.95;100380.50;5018435;28;20025;-77
2022/04/03 10:08:52;;;;;;;3.85;2.33;;;;;;;11.41;24.94;100387.56;5036608;28;20037;-77
2022/04/03 10:11:33;;;;;;;4.65;2.22;;;;;;;11.56;24.96;100387.63;5036554;28;20080;-77
2022/04/03 10:14:06;;;;;;;5.10;2.17;;;;;;;11.43;24.55;100376.47;5036266;28;20029;-78
2022/04/03 10:16:31;;;;;;;3.25;2.10;;;;;;;11.34;25.06;100392.84;5018832;28;20035;-78
2022/04/03 10:19:05;;;;;;;2.92;1.88;;;;;;;11.18;24.88;100389.09;5035289;28;20476;-77
2022/04/03 10:21:36;;;;;;;6.05;1.67;;;;;;;10.93;25.56;100397.25;5035059;28;20446;-78
2022/04/03 10:24:18;;;;;;;8.38;2.17;;;;;;;10.53;25.96;100394.66;5036057;28;20120;-78
2022/04/03 10:26:58;;;;;;;6.93;2.53;;;;;;;10.17;26.06;100396.25;5034750;28;20378;-77
2022/04/03 10:29:24;;;;;;;5.65;2.45;;;;;;;9.71;27.34;100401.09;5035233;28;20033;-77
2022/04/03 10:31:58;;;;;;;2.70;1.83;;;;;;;9.46;28.83;100401.31;5036059;28;20187;-77
2022/04/03 10:34:27;;;;;;;7.47;2.70;;;;;;;9.26;29.02;100398.88;5018348;28;20022;-79
2022/04/03 10:36:53;;;;;;;4.78;2.25;;;;;;;9.03;29.75;100411.56;5034861;28;20076;-77
2022/04/03 10:39:26;;;;;;;5.40;2.53;;;;;;;9.03;30.25;100399.41;5018323;28;20029;-77
2022/04/03 10:42:25;;;;;;;3.50;1.90;;;;;;;8.79;30.69;100410.47;5035958;28;20435;-79
2022/04/03 10:45:12;;;;;;;4.55;2.47;;;;;;;8.59;31.79;100408.00;5034101;28;20547;-78
2022/04/03 10:47:39;;;;;;;4.63;2.20;;;;;;;8.47;32.13;100410.91;5035894;28;20029;-79
2022/04/03 10:50:14;;;;;;;4.43;2.45;;;;;;;8.63;32.36;100405.81;5017780;28;20041;-78
2022/04/03 10:52:42;;;;;;;4.40;2.35;;;;;;;8.97;31.80;100404.13;5034396;28;20053;-80
2022/04/03 10:55:25;;;;;;;2.28;1.35;;;;;;;9.29;30.80;100403.63;5035896;28;20068;-78
2022/04/03 10:58:06;;;;;;;3.28;1.85;;;;;;;9.54;28.83;100392.03;5031513;28;20035;-79
2022/04/03 11:00:35;;;;;;;2.83;1.63;;;;;;;9.73;29.29;100392.84;5034686;28;20075;-78
2022/04/03 11:03:31;;;;;;;3.53;1.90;;;;;;;10.29;28.43;100389.63;5017953;28;20048;-80
2022/04/03 11:06:18;;;;;;;3.33;2.00;;;;;;;10.62;27.02;100386.88;5034370;28;20029;-78
2022/04/03 11:08:54;;;;;;;6.38;1.90;;;;;;;10.43;27.03;100391.03;5033948;28;20041;-79
2022/04/03 11:11:42;;;;;;;3.67;1.70;;;;;;;9.99;27.44;100399.06;5034410;28;20056;-77
2022/04/03 11:14:36;;;;;;;6.45;2.33;;;;;;;9.43;29.25;100396.56;5033790;28;20112;-78
2022/04/03 11:17:01;;;;;;;2.65;1.98;;;;;;;8.96;30.11;100403.34;5035385;28;20052;-79
2022/04/03 11:19:42;;;;;;;4.07;2.22;;;;;;;8.56;30.74;100406.09;5017562;28;20029;-78
2022/04/03 11:22:09;;;;;;;3.40;2.15;;;;;;;8.17;31.15;100407.50;5017589;28;20037;-78
2022/04/03 11:24:36;;;;;;;7.25;3.60;;;;;;;7.80;31.75;100406.38;5033819;28;20091;-79
2022/04/03 11:27:04;;;;;;;4.32;2.50;;;;;;;7.64;31.89;100415.03;5033937;28;20049;-79
2022/04/03 11:29:31;;;;;;;3.75;2.00;;;;;;;7.66;31.73;100414.56;5035718;28;20389;-82
2022/04/03 11:31:57;;;;;;;5.60;2.35;;;;;;;7.43;32.12;100412.91;5034550;28;20057;-83
2022/04/03 11:34:37;;;;;;;2.97;1.80;;;;;;;7.47;32.56;100413.56;5036181;28;20079;-82
2022/04/03 11:37:20;;;;;;;2.67;1.77;;;;;;;7.73;31.64;100412.28;5034760;28;20029;-81